createdAt,value
2023-05-22T00:02:39.025Z,100
2023-05-22T00:07:36.806Z,100
2023-05-22T00:12:38.463Z,100
2023-05-22T00:17:35.927Z,100
2023-05-22T00:22:34.244Z,100
2023-05-22T00:27:32.321Z,100
2023-05-22T00:32:30.490Z,100
2023-05-22T00:37:28.733Z,100
2023-05-22T00:42:26.870Z,100
2023-05-22T00:47:24.695Z,100
2023-05-22T00:52:22.967Z,100
2023-05-22T00:57:21.604Z,100
2023-05-22T01:02:19.629Z,100
2023-05-22T01:07:17.643Z,100
2023-05-22T01:12:15.807Z,100
2023-05-22T01:17:13.962Z,100
2023-05-22T01:22:15.578Z,100
2023-05-22T01:27:12.913Z,100
2023-05-22T01:32:11.520Z,100
2023-05-22T01:37:09.649Z,100
2023-05-22T01:42:07.628Z,100
2023-05-22T01:47:05.660Z,100
2023-05-22T01:52:03.943Z,100
2023-05-22T01:57:02.311Z,100
2023-05-22T02:02:00.669Z,100
2023-05-22T02:06:58.738Z,100
2023-05-22T02:11:56.808Z,100
2023-05-22T02:16:54.949Z,100
2023-05-22T02:21:53.125Z,100
2023-05-22T02:26:51.273Z,100
2023-05-22T02:31:49.597Z,100
2023-05-22T02:36:47.403Z,100
2023-05-22T02:41:45.328Z,100
2023-05-22T02:46:43.447Z,100
2023-05-22T02:51:41.741Z,100
2023-05-22T02:56:39.836Z,100
2023-05-22T03:01:37.867Z,100
2023-05-22T03:06:36.640Z,100
2023-05-22T03:11:34.747Z,100
2023-05-22T03:16:33.025Z,100
2023-05-22T03:21:31.444Z,100
2023-05-22T03:26:30.231Z,100
2023-05-22T03:31:28.760Z,100
2023-05-22T03:36:27.535Z,100
2023-05-22T03:41:27.081Z,100
2023-05-22T03:46:24.617Z,100
2023-05-22T03:51:23.302Z,100
2023-05-22T03:56:21.624Z,100
2023-05-22T04:01:18.988Z,100
2023-05-22T04:06:16.981Z,100
2023-05-22T04:11:15.379Z,100
2023-05-22T04:16:17.301Z,100
2023-05-22T04:21:15.137Z,100
2023-05-22T04:26:15.361Z,100
2023-05-22T04:31:13.470Z,100
2023-05-22T04:36:12.551Z,100
2023-05-22T04:41:09.697Z,100
2023-05-22T04:46:07.878Z,100
2023-05-22T04:51:06.024Z,100
2023-05-22T04:56:04.433Z,100
2023-05-22T05:01:02.469Z,100
2023-05-22T05:06:01.121Z,100
2023-05-22T05:10:59.905Z,100
2023-05-22T05:15:58.292Z,100
2023-05-22T05:20:56.537Z,100
2023-05-22T05:25:55.469Z,100
2023-05-22T05:30:53.900Z,100
2023-05-22T05:35:53.344Z,100
2023-05-22T05:40:52.173Z,100
2023-05-22T05:45:51.320Z,100
2023-05-22T05:50:48.777Z,100
2023-05-22T05:55:46.255Z,100
2023-05-22T06:00:44.440Z,100
2023-05-22T06:05:42.936Z,100
2023-05-22T06:10:42.082Z,100
2023-05-22T06:15:40.642Z,100
2023-05-22T06:20:43.383Z,100
2023-05-22T06:25:47.279Z,78.8
2023-05-22T06:30:44.994Z,64.1
2023-05-22T06:35:49.054Z,54.8
2023-05-22T06:40:47.354Z,40.5
2023-05-22T06:45:50.418Z,36.5
2023-05-22T06:50:49.367Z,34.8
2023-05-22T06:55:47.113Z,31
2023-05-22T07:00:49.672Z,31.4
2023-05-22T07:05:47.569Z,33
2023-05-22T07:10:46.210Z,30.7
2023-05-22T07:15:46.369Z,31.7
2023-05-22T07:20:41.520Z,32.8
2023-05-22T07:25:33.028Z,46.9
2023-05-22T07:30:30.684Z,42.4
2023-05-22T07:35:33.511Z,35.3
2023-05-22T07:40:33.837Z,35.3
2023-05-22T07:45:24.254Z,44.4
2023-05-22T07:50:19.425Z,51.5
2023-05-22T07:55:21.611Z,42.7
2023-05-22T08:00:23.829Z,32.6
2023-05-22T08:05:27.117Z,28.9
2023-05-22T08:10:29.944Z,26.7
2023-05-22T08:15:26.066Z,24.9
2023-05-22T08:20:24.749Z,21.6
2023-05-22T08:25:18.965Z,28.9
2023-05-22T08:30:27.099Z,21.8
2023-05-22T08:35:25.067Z,22.3
2023-05-22T08:40:23.063Z,21.6
2023-05-22T08:45:22.176Z,20.1
2023-05-22T08:50:20.960Z,19.5
2023-05-22T08:55:19.805Z,19.1
2023-05-22T09:00:17.555Z,19.3
2023-05-22T09:05:15.889Z,20.6
2023-05-22T09:10:13.007Z,19.1
2023-05-22T09:15:09.939Z,21.3
2023-05-22T09:20:06.579Z,22
2023-05-22T09:25:04.693Z,23.5
2023-05-22T09:30:01.983Z,22.3
2023-05-22T09:35:01.048Z,20.4
2023-05-22T09:40:02.019Z,21.1
2023-05-22T09:44:59.106Z,21.3
2023-05-22T09:49:57.914Z,20.5
2023-05-22T09:54:56.867Z,19.2
2023-05-22T09:59:55.233Z,19.6
2023-05-22T10:04:50.843Z,20.8
2023-05-22T10:09:49.807Z,19.6
2023-05-22T10:14:46.887Z,19.4
2023-05-22T10:19:43.419Z,22.4
2023-05-22T10:24:36.825Z,26.6
2023-05-22T10:29:35.055Z,26.9
2023-05-22T10:34:30.907Z,27.5
2023-05-22T10:39:29.586Z,25.6
2023-05-22T10:44:28.832Z,25.2
2023-05-22T10:49:25.660Z,26.7
2023-05-22T10:54:24.361Z,25.3
2023-05-22T10:59:25.250Z,23.5
2023-05-22T11:04:20.262Z,26.4
2023-05-22T11:09:15.685Z,28.9
2023-05-22T11:14:12.350Z,30.1
2023-05-22T11:19:23.113Z,22.1
2023-05-22T11:24:17.183Z,24.6
2023-05-22T11:29:12.458Z,23.7
2023-05-22T11:34:14.966Z,20.8
2023-05-22T11:39:16.477Z,19.8
2023-05-22T11:44:16.674Z,19.3
2023-05-22T11:49:13.539Z,21
2023-05-22T11:54:08.207Z,21
2023-05-22T11:59:09.287Z,19.8
2023-05-22T12:04:06.004Z,20.2
2023-05-22T12:09:01.740Z,23.2
2023-05-22T12:13:56.356Z,26.5
2023-05-22T12:18:51.274Z,29.1
2023-05-22T12:23:46.527Z,33
2023-05-22T12:28:42.841Z,37.6
2023-05-22T12:33:39.124Z,39.3
2023-05-22T12:38:36.976Z,41
2023-05-22T12:43:35.018Z,40.3
2023-05-22T12:48:33.558Z,41.2
2023-05-22T12:53:32.312Z,41
2023-05-22T12:58:30.685Z,42.2
2023-05-22T13:03:28.183Z,41.5
2023-05-22T13:08:27.340Z,40.6
2023-05-22T13:13:25.871Z,39.4
2023-05-22T13:18:24.543Z,37.4
2023-05-22T13:23:23.069Z,35.7
2023-05-22T13:28:23.921Z,32.6
2023-05-22T13:33:20.398Z,36.6
2023-05-22T13:38:16.590Z,40.3
2023-05-22T13:43:13.742Z,43.1
2023-05-22T13:48:11.601Z,42.2
2023-05-22T13:53:09.285Z,47
2023-05-22T13:58:07.421Z,48.2
2023-05-22T14:03:06.024Z,44.3
2023-05-22T14:08:04.120Z,47.8
2023-05-22T14:13:01.625Z,46.9
2023-05-22T14:17:59.484Z,45.9
2023-05-22T14:22:58.336Z,44
2023-05-22T14:27:55.042Z,47.2
2023-05-22T14:32:52.050Z,46
2023-05-22T14:37:48.612Z,51.1
2023-05-22T14:42:45.819Z,58.3
2023-05-22T14:47:43.009Z,61.1
2023-05-22T14:52:40.622Z,63.6
2023-05-22T14:57:38.610Z,72.1
2023-05-22T15:02:36.589Z,81.6
2023-05-22T15:12:33.268Z,91.6
2023-05-22T15:17:32.251Z,79
2023-05-22T15:22:30.512Z,69.7
2023-05-22T15:27:28.974Z,64.5
2023-05-22T15:32:26.494Z,69.6
2023-05-22T15:37:25.689Z,71.3
2023-05-22T15:42:24.055Z,72.5
2023-05-22T15:47:21.930Z,76.3
2023-05-22T15:52:19.929Z,70.6
2023-05-22T15:57:17.788Z,80
2023-05-22T16:02:15.092Z,90.7
2023-05-22T16:07:12.409Z,100
2023-05-22T16:12:10.279Z,100
2023-05-22T16:17:08.566Z,100
2023-05-22T16:22:06.743Z,95
2023-05-22T16:27:04.593Z,100
2023-05-22T16:32:02.283Z,100
2023-05-22T16:37:00.274Z,100
2023-05-22T16:41:58.011Z,100
2023-05-22T16:46:59.922Z,100
2023-05-22T16:51:57.122Z,100
2023-05-22T16:56:54.976Z,100
2023-05-22T17:01:53.363Z,100
2023-05-22T17:06:51.535Z,100
2023-05-22T17:11:49.506Z,100
2023-05-22T17:16:47.521Z,100
2023-05-22T17:21:45.137Z,100
2023-05-22T17:26:43.679Z,100
2023-05-22T17:31:41.641Z,100
2023-05-22T17:36:41.495Z,100
2023-05-22T17:41:37.753Z,100
2023-05-22T17:46:36.286Z,100
2023-05-22T17:51:34.566Z,100
2023-05-22T17:56:36.946Z,100
2023-05-22T18:01:34.215Z,100
2023-05-22T18:06:32.403Z,100
2023-05-22T18:11:30.395Z,100
2023-05-22T18:16:28.560Z,100
2023-05-22T18:21:26.471Z,100
2023-05-22T18:26:24.534Z,100
2023-05-22T18:31:22.330Z,100
2023-05-22T18:36:20.408Z,100
2023-05-22T18:41:18.294Z,100
2023-05-22T18:46:16.456Z,100
2023-05-22T18:51:14.407Z,100
2023-05-22T18:56:12.339Z,100
2023-05-22T19:01:10.398Z,100
2023-05-22T19:06:08.637Z,100
2023-05-22T19:11:06.949Z,100
2023-05-22T19:16:05.032Z,100
2023-05-22T19:21:03.546Z,100
2023-05-22T19:26:02.147Z,100
2023-05-22T19:31:00.832Z,100
2023-05-22T19:35:59.300Z,100
2023-05-22T19:41:01.551Z,100
2023-05-22T19:45:59.175Z,100
2023-05-22T19:50:57.654Z,100
2023-05-22T19:55:56.064Z,100
2023-05-22T20:00:54.401Z,100
2023-05-22T20:05:52.252Z,100
2023-05-22T20:10:50.390Z,100
2023-05-22T20:15:48.850Z,100
2023-05-22T20:20:46.762Z,100
2023-05-22T20:25:45.001Z,100
2023-05-22T20:30:43.408Z,100
2023-05-22T20:35:42.001Z,100
2023-05-22T20:40:39.818Z,100
2023-05-22T20:45:38.093Z,100
2023-05-22T20:50:37.561Z,100
2023-05-22T20:55:34.371Z,100
2023-05-22T21:00:32.954Z,100
2023-05-22T21:05:31.327Z,100
2023-05-22T21:10:29.377Z,100
2023-05-22T21:15:27.609Z,100
2023-05-22T21:20:25.853Z,100
2023-05-22T21:25:23.781Z,100
2023-05-22T21:30:22.025Z,100
2023-05-22T21:35:20.326Z,100
2023-05-22T21:40:18.513Z,100
2023-05-22T21:45:16.503Z,100
2023-05-22T21:50:14.400Z,100
2023-05-22T21:55:12.674Z,100
2023-05-22T22:00:11.634Z,100
2023-05-22T22:05:09.143Z,100
2023-05-22T22:10:07.534Z,100
2023-05-22T22:15:06.214Z,100
2023-05-22T22:20:04.424Z,100
2023-05-22T22:25:02.522Z,100
2023-05-22T22:30:00.576Z,100
2023-05-22T22:34:58.349Z,100
2023-05-22T22:39:56.841Z,100
2023-05-22T22:44:54.965Z,100
2023-05-22T22:49:52.902Z,100
2023-05-22T22:54:51.066Z,100
2023-05-22T22:59:49.046Z,100
2023-05-22T23:04:47.293Z,100
2023-05-22T23:09:45.374Z,100
2023-05-22T23:14:43.458Z,100
2023-05-22T23:19:41.337Z,100
2023-05-22T23:24:39.990Z,100
2023-05-22T23:29:37.190Z,100
2023-05-22T23:34:35.217Z,100
2023-05-22T23:39:33.190Z,100
2023-05-22T23:44:31.238Z,100
2023-05-22T23:49:29.474Z,100
2023-05-22T23:54:27.551Z,100
2023-05-22T23:59:25.775Z,100
